Flight Track Log - Related Links

Times and Time Zones

All times are in EDT time to prevent confusion due to time zone crossing. See the N527PA flight status page for this flight to view local times or setup timezone preferences in your user account.

Time Position Orientation Groundspeed Altitude Reporting Facility
EDT Latitude Longitude Course Direction KTS MPH feet Rate Location/Type
Tue 12:43:09 PM 40.1678 -112.7828 90° East 287 330 11,500  Level Salt Lake Center
Tue 12:44:10 PM 40.1792 -112.6703 82° East 317 365 13,500 2,000 Climbing Salt Lake Center
Tue 12:45:12 PM 40.1944 -112.5442 81° East 333 383 15,600 1,887 Climbing Salt Lake Center
Tue 12:46:14 PM 40.1919 -112.4044 91° East 380 437 17,400 1,805 Climbing Salt Lake Center
Tue 12:47:00 PM 40.2652 -112.0253 78° East  Level FlightAware Approximate
Tue 12:47:15 PM 40.1747 -112.2625 99° East 395 455 19,300  Level Salt Lake Center
Tue 12:48:00 PM 40.2667 -111.8726 90° East  Level FlightAware Approximate
Tue 12:48:17 PM 40.1600 -112.1128 97° East 417 480 21,300  Level Salt Lake Center
Tue 12:49:18 PM 40.1439 -111.9611 98° East 423 487 23,100 1,707 Climbing Salt Lake Center
Tue 12:50:20 PM 40.1219 -111.7722 99° East 442 509 24,800 1,403 Climbing Salt Lake Center
Tue 12:51:22 PM 40.1064 -111.6097 97° East 452 520 26,000 1,220 Climbing Salt Lake Center
Tue 12:52:23 PM 40.0886 -111.4436 98° East 464 534 27,300 1,122 Climbing Salt Lake Center
Tue 12:53:25 PM 40.0608 -111.2775 102° East 470 541 28,300 1,073 Climbing Salt Lake Center
Tue 12:54:26 PM 40.0369 -111.0997 100° East 476 548 29,500 1,268 Climbing Salt Lake Center
Tue 12:55:28 PM 40.0100 -110.9125 101° East 473 544 30,900 927 Climbing Salt Lake Center
Tue 12:56:29 PM 39.9889 -110.7481 99° East 479 551 31,400 780 Climbing Salt Lake Center
Tue 12:57:31 PM 39.9661 -110.5842 100° East 482 555 32,500 1,073 Climbing Salt Lake Center
Tue 12:58:32 PM 39.9411 -110.3950 100° East 476 548 33,600 878 Climbing Salt Lake Center
Tue 12:59:34 PM 39.9175 -110.2336 101° East 476 548 34,300 683 Climbing Salt Lake Center
Tue 01:00:35 PM 39.8903 -110.0444 101° East 475 547 35,000 341 Climbing Salt Lake Center
Tue 01:01:37 PM 39.8647 -109.8769 101° East 490 564 35,000 49 Level Salt Lake Center
Tue 01:02:38 PM 39.8325 -109.6781 102° East 502 578 35,100  Climbing Salt Lake Center
Tue 01:02:59 PM 39.8239 -109.6194 101° East 504 580 35,000  Descending Denver Center
Tue 01:04:01 PM 39.7967 -109.4467 102° East 509 586 35,100 59 Climbing Denver Center
Tue 01:04:41 PM 39.7800 -109.3336 101° East 508 585 35,100  Level Salt Lake Center
Tue 01:05:43 PM 39.7511 -109.1317 100° East 509 586 35,100  Level Salt Lake Center
Tue 01:06:05 PM 39.7425 -109.0731 101° East 506 582 35,100  Level Denver Center
Tue 01:07:07 PM 39.7106 -108.8714 102° East 507 583 35,100 -48 Level Denver Center
Tue 01:08:09 PM 39.6842 -108.6903 101° East 511 588 35,000  Descending Denver Center
Tue 01:09:11 PM 39.6575 -108.5169 101° East 508 585 35,100 48 Climbing Denver Center
Tue 01:10:13 PM 39.6275 -108.3178 101° East 504 580 35,100  Level Denver Center
Tue 01:11:15 PM 39.6008 -108.1494 102° East 498 573 35,100  Level Denver Center
Tue 01:12:17 PM 39.5692 -107.9522 102° East 501 577 35,100  Level Denver Center
Tue 01:13:19 PM 39.5400 -107.7839 103° East 502 578 35,100  Level Denver Center
Tue 01:14:21 PM 39.5100 -107.6150 103° East 503 579 35,100  Level Denver Center
Tue 01:15:23 PM 39.4733 -107.4178 103° East 505 581 35,100  Level Denver Center
Tue 01:16:26 PM 39.4431 -107.2489 103° East 505 581 35,100  Level Denver Center
Tue 01:17:28 PM 39.4083 -107.0500 103° East 509 586 35,100  Level Denver Center
Tue 01:18:30 PM 39.3786 -106.8828 103° East 501 577 35,100  Level Denver Center
Tue 01:19:32 PM 39.3431 -106.6864 103° East 502 578 35,100 -48 Level Denver Center
Tue 01:20:34 PM 39.3131 -106.5186 103° East 501 577 35,000  Descending Denver Center
Tue 01:21:36 PM 39.2800 -106.3236 102° East 500 575 35,100  Climbing Denver Center
Tue 01:22:38 PM 39.2467 -106.1519 104° East 498 573 35,000  Descending Denver Center
Tue 01:23:52 PM 39.2133 -105.9794 104° East 497 572 35,100 44 Climbing Denver Center
Tue 01:24:54 PM 39.1742 -105.7711 104° East 498 573 35,100 -48 Level Denver Center
Tue 01:25:56 PM 39.1392 -105.5797 103° East 494 568 35,000 -48 Descending Denver Center
Tue 01:26:58 PM 39.1092 -105.4167 103° East 491 565 35,000  Level Denver Center
Tue 01:28:00 PM 39.0717 -105.2267 104° East 489 563 35,000  Level Denver Center
Tue 01:29:02 PM 39.0367 -105.0547 105° East 491 565 35,000 48 Level Denver Center
Tue 01:30:04 PM 39.0019 -104.8764 104° East 488 562 35,100  Climbing Denver Center
Tue 01:31:06 PM 38.9689 -104.7144 105° East 488 562 35,000 -48 Descending Denver Center
Tue 01:32:08 PM 38.9308 -104.5272 105° East 484 557 35,000 48 Level Denver Center
Tue 01:33:10 PM 38.8986 -104.3692 105° East 479 551 35,100 48 Climbing Denver Center
Tue 01:34:12 PM 38.8617 -104.1814 104° East 484 557 35,100  Level Denver Center
Tue 01:35:26 PM 38.8306 -104.0294 105° East 482 555 35,100  Level Denver Center
Tue 01:36:28 PM 38.7889 -103.8092 104° East 481 554 35,100  Level Denver Center
Tue 01:37:30 PM 38.7575 -103.6492 104° East 482 555 35,100  Level Denver Center
Tue 01:38:32 PM 38.7197 -103.4650 105° East 481 554 35,100  Level Denver Center
Tue 01:39:34 PM 38.6844 -103.2978 105° East 472 543 35,100 -48 Level Denver Center
Tue 01:40:36 PM 38.6547 -103.1506 104° East 480 552 35,000  Descending Denver Center
Tue 01:41:38 PM 38.6169 -102.9575 104° East 474 545 35,100 48 Climbing Denver Center
Tue 01:42:40 PM 38.5861 -102.8125 105° East 474 545 35,100  Level Denver Center
Tue 01:43:42 PM 38.5492 -102.6472 106° East 474 545 35,100  Level Denver Center
Tue 01:44:44 PM 38.5108 -102.4672 105° East 472 543 35,100  Level Denver Center
Tue 01:45:46 PM 38.4769 -102.3153 106° East 468 539 35,100  Level Denver Center
Tue 01:46:47 PM 38.4428 -102.1619 106° East 468 539 35,100  Level Denver Center
Tue 01:47:50 PM 38.4039 -101.9833 105° East 469 540 35,100  Level Denver Center
Tue 01:48:52 PM 38.3650 -101.8061 106° East 468 539 35,100  Level Denver Center
Tue 01:49:54 PM 38.3308 -101.6528 106° East 468 539 35,100  Level Denver Center
Tue 01:50:56 PM 38.2906 -101.4736 106° East 471 542 35,100  Level Denver Center
Tue 01:51:58 PM 38.2553 -101.3214 106° East 469 540 35,100  Level Denver Center
Tue 01:52:59 PM 38.2153 -101.1425 106° East 468 539 35,100  Level Denver Center
Tue 01:54:13 PM 38.1800 -100.9894 106° East 468 539 35,100  Level Denver Center
Tue 01:55:16 PM 38.1350 -100.7850 106° East 469 540 35,100  Level Denver Center
Tue 01:56:35 PM 38.0864 -100.5786 107° East 469 540 35,100  Level Kansas City Center
Tue 01:57:37 PM 38.0511 -100.4256 106° East 470 541 35,100  Level Kansas City Center
Tue 01:58:39 PM 38.0097 -100.2503 107° East 466 536 35,100  Level Kansas City Center
Tue 01:59:41 PM 37.9725 -100.0992 107° East 466 536 35,100  Level Kansas City Center
Tue 02:00:43 PM 37.9278 -99.9228 108° East 468 539 35,100 -48 Level Kansas City Center
Tue 02:01:45 PM 37.8889 -99.7736 108° East 467 537 35,000  Descending Kansas City Center
Tue 02:02:47 PM 37.8453 -99.6000 108° East 465 535 35,100  Climbing Kansas City Center
Tue 02:03:49 PM 37.8142 -99.4653 106° East 463 533 35,000 -48 Descending Kansas City Center
Tue 02:04:51 PM 37.7767 -99.3122 107° East 460 529 35,000  Level Kansas City Center
Tue 02:05:54 PM 37.7292 -99.1272 108° East 461 531 35,000 48 Level Kansas City Center
Tue 02:06:56 PM 37.6911 -98.9739 107° East 460 529 35,100 48 Climbing Kansas City Center
Tue 02:07:58 PM 37.6536 -98.8194 107° East 462 532 35,100 -48 Level Kansas City Center
Tue 02:09:00 PM 37.6133 -98.6639 108° East 466 536 35,000  Descending Kansas City Center
Tue 02:10:02 PM 37.5733 -98.5111 108° East 463 533 35,100 48 Climbing Kansas City Center
Tue 02:11:04 PM 37.5281 -98.3281 107° East 461 531 35,100  Level Kansas City Center
Tue 02:12:06 PM 37.4908 -98.1758 107° East 459 528 35,100  Level Kansas City Center
Tue 02:13:08 PM 37.4531 -98.0239 107° East 458 527 35,100  Level Kansas City Center
Tue 02:14:10 PM 37.4150 -97.8733 108° East 458 527 35,100 -48 Level Kansas City Center
Tue 02:15:12 PM 37.3728 -97.7261 110° East 454 522 35,000 -48 Descending Kansas City Center
Tue 02:16:14 PM 37.3183 -97.5506 111° Southeast 452 520 35,000  Level Kansas City Center
Tue 02:17:16 PM 37.2772 -97.4036 109° East 450 518 35,000  Level Kansas City Center
Tue 02:18:18 PM 37.2361 -97.2547 109° East 451 519 35,000 48 Level Kansas City Center
Tue 02:19:20 PM 37.1978 -97.1053 108° East 452 520 35,100 48 Climbing Kansas City Center
Tue 02:20:22 PM 37.1603 -96.9561 107° East 451 519 35,100 -48 Level Kansas City Center
Tue 02:21:24 PM 37.1206 -96.8083 109° East 449 517 35,000 -48 Descending Kansas City Center
Tue 02:22:26 PM 37.0756 -96.6433 109° East 448 516 35,000  Level Kansas City Center
Tue 02:23:28 PM 37.0347 -96.4967 109° East 446 513 35,000 48 Level Kansas City Center
Tue 02:24:30 PM 36.9939 -96.3483 109° East 447 514 35,100 48 Climbing Kansas City Center
Tue 02:25:32 PM 36.9456 -96.1717 109° East 447 514 35,100 -48 Level Kansas City Center
Tue 02:26:34 PM 36.9064 -96.0258 109° East 442 509 35,000 -48 Descending Kansas City Center
Tue 02:27:36 PM 36.8669 -95.8789 109° East 443 510 35,000 48 Level Kansas City Center
Tue 02:28:38 PM 36.8267 -95.7350 109° East 439 505 35,100  Climbing Kansas City Center
Tue 02:29:40 PM 36.7864 -95.5886 109° East 441 507 35,000 -48 Descending Kansas City Center
Tue 02:30:42 PM 36.7453 -95.4428 109° East 442 509 35,000 48 Level Kansas City Center
Tue 02:31:44 PM 36.7028 -95.2958 110° East 443 510 35,100 48 Climbing Kansas City Center
Tue 02:32:46 PM 36.6636 -95.1486 108° East 443 510 35,100 -48 Level Kansas City Center
Tue 02:33:49 PM 36.6242 -95.0028 109° East 441 507 35,000 -48 Descending Kansas City Center
Tue 02:34:51 PM 36.5778 -94.8275 108° East 441 507 35,000 48 Level Kansas City Center
Tue 02:35:53 PM 36.5406 -94.6792 107° East 445 512 35,100  Climbing Kansas City Center
Tue 02:36:55 PM 36.4997 -94.5342 109° East 443 510 35,000  Descending Kansas City Center
Tue 02:37:57 PM 36.4525 -94.3919 112° Southeast 443 510 35,100 48 Climbing Kansas City Center
Tue 02:38:59 PM 36.4069 -94.2475 111° Southeast 445 512 35,100  Level Kansas City Center
Tue 02:40:01 PM 36.3617 -94.1047 111° Southeast 445 512 35,100  Level Kansas City Center
Tue 02:40:21 PM 36.3458 -94.0517 110° East 442 509 35,100 -74 Level Memphis Center
Tue 02:41:22 PM 36.3019 -93.9081 111° Southeast 442 509 35,000  Descending Memphis Center
Tue 02:42:21 PM 36.2581 -93.7622 110° East 442 509 35,100  Climbing Memphis Center
Tue 02:43:21 PM 36.2100 -93.6083 111° Southeast 442 509 35,000 -50 Descending Memphis Center
Tue 02:44:21 PM 36.1681 -93.4628 110° East 442 509 35,000 50 Level Memphis Center
Tue 02:45:21 PM 36.1214 -93.3197 112° Southeast 442 509 35,100 50 Climbing Memphis Center
Tue 02:46:21 PM 36.0789 -93.1717 110° East 442 509 35,100  Level Memphis Center
Tue 02:47:21 PM 36.0383 -93.0239 109° East 448 516 35,100  Level Memphis Center
Tue 02:48:21 PM 35.9914 -92.8789 112° Southeast 453 521 35,100  Level Memphis Center
Tue 02:49:21 PM 35.9483 -92.7314 110° East 458 527 35,100  Level Memphis Center
Tue 02:50:21 PM 35.9033 -92.5814 110° East 458 527 35,100  Level Memphis Center
Tue 02:51:21 PM 35.8536 -92.4392 113° Southeast 458 527 35,100 -50 Level Memphis Center
Tue 02:52:21 PM 35.8081 -92.2947 111° Southeast 452 520 35,000  Descending Memphis Center
Tue 02:53:21 PM 35.7622 -92.1503 111° Southeast 452 520 35,100  Climbing Memphis Center
Tue 02:54:21 PM 35.7203 -92.0167 111° Southeast 460 529 35,000 -50 Descending Memphis Center
Tue 02:55:21 PM 35.6761 -91.8700 110° East 460 529 35,000  Level Memphis Center
Tue 02:56:21 PM 35.6297 -91.7261 112° Southeast 452 520 35,000  Level Memphis Center
Tue 02:57:21 PM 35.5856 -91.5772 110° East 458 527 35,000 50 Level Memphis Center
Tue 02:58:21 PM 35.5347 -91.4133 111° Southeast 458 527 35,100 50 Climbing Memphis Center
Tue 02:59:21 PM 35.4881 -91.2622 111° Southeast 467 537 35,100 -50 Level Memphis Center
Tue 03:00:21 PM 35.4347 -91.1189 115° Southeast 467 537 35,000  Descending Memphis Center
Tue 03:01:21 PM 35.3772 -90.9733 116° Southeast 467 537 35,100  Climbing Memphis Center
Tue 03:02:21 PM 35.3256 -90.8306 114° Southeast 459 528 35,000 -50 Descending Memphis Center
Tue 03:03:21 PM 35.2719 -90.6878 115° Southeast 459 528 35,000 -250 Level Memphis Center
Tue 03:04:21 PM 35.2139 -90.5400 116° Southeast 468 539 34,500 -600 Descending Memphis Center
Tue 03:05:21 PM 35.1556 -90.3925 116° Southeast 479 551 33,800 -800 Descending Memphis Center
Tue 03:06:21 PM 35.0969 -90.2481 116° Southeast 479 551 32,900 -800 Descending Memphis Center
Tue 03:07:21 PM 35.0467 -90.1161 115° Southeast 479 551 32,200 -750 Descending Memphis Center
Tue 03:08:21 PM 34.9922 -89.9692 114° Southeast 479 551 31,400 -1,050 Descending Memphis Center
Tue 03:09:21 PM 34.9811 -89.8097 95° East 467 537 30,100 -1,000 Descending Memphis Center
Tue 03:10:21 PM 34.9592 -89.6325 99° East 477 549 29,400 -550 Descending Memphis Center
Tue 03:11:21 PM 34.9394 -89.4831 99° East 462 532 29,000 -200 Descending Memphis Center
Tue 03:12:21 PM 34.9156 -89.3364 101° East 443 510 29,000  Level Memphis Center
Tue 03:13:21 PM 34.8892 -89.1900 102° East 438 504 29,000 50 Level Memphis Center
Tue 03:14:21 PM 34.8628 -89.0436 102° East 443 510 29,100 50 Climbing Memphis Center
Tue 03:15:21 PM 34.8400 -88.8947 101° East 443 510 29,100  Level Memphis Center
Tue 03:16:21 PM 34.8217 -88.7633 100° East 449 517 29,100  Level Memphis Center
Tue 03:17:21 PM 34.7989 -88.6147 101° East 449 517 29,100  Level Memphis Center
Tue 03:18:21 PM 34.7736 -88.4558 101° East 438 504 29,100  Level Memphis Center
Tue 03:19:21 PM 34.7503 -88.3072 101° East 438 504 29,100  Level Memphis Center
Tue 03:20:21 PM 34.7356 -88.1661 97° East 451 519 29,100  Level Memphis Center
Tue 03:21:21 PM 34.7100 -88.0203 102° East 451 519 29,100  Level Memphis Center
Tue 03:22:21 PM 34.6925 -87.8717 98° East 446 513 29,100  Level Memphis Center
Tue 03:23:21 PM 34.6661 -87.7083 101° East 446 513 29,100 -30 Level Memphis Center
Tue 03:25:43 PM 34.6069 -87.3725 102° East 435 501 29,000  Descending Atlanta Center
Tue 03:26:43 PM 34.5758 -87.2100 103° East 440 506 29,100 50 Climbing Atlanta Center
Tue 03:27:43 PM 34.5503 -87.0628 102° East 445 512 29,100 -50 Level Atlanta Center
Tue 03:28:43 PM 34.5244 -86.9156 102° East 450 518 29,000 -450 Descending Atlanta Center
Tue 03:29:43 PM 34.4967 -86.7658 103° East 450 518 28,200 -1,100 Descending Atlanta Center
Tue 03:30:43 PM 34.4664 -86.6214 104° East 450 518 26,800 -1,450 Descending Atlanta Center
Tue 03:31:43 PM 34.4422 -86.4769 101° East 450 518 25,300 -1,350 Descending Atlanta Center
Tue 03:32:43 PM 34.4114 -86.3400 105° East 438 504 24,100 -650 Descending Atlanta Center
Tue 03:33:43 PM 34.3825 -86.2083 105° East 424 488 24,000 -50 Descending Atlanta Center
Tue 03:34:43 PM 34.3514 -86.0744 106° East 412 474 24,000  Level Atlanta Center
Tue 03:35:43 PM 34.3222 -85.9378 104° East 412 474 24,000 -650 Level Atlanta Center
Tue 03:36:43 PM 34.2972 -85.8064 103° East 407 468 22,700 -1,400 Descending Atlanta Center
Tue 03:38:00 PM 34.1671 -85.6976 145° Southeast  Level FlightAware Approximate
Tue 03:38:43 PM 34.2503 -85.5592 145° Southeast 396 456 19,800  Level Atlanta Center
Tue 03:39:43 PM 34.2225 -85.4306 105° East 390 449 17,700 -4,164 Descending Atlanta Center
Tue 03:41:46 PM 34.1667 -85.2000 106° East 292 336 7,100 -3,508 Descending Atlanta TRACON
Tue 03:42:46 PM 34.1667 -85.1167 90° East 263 303 7,000 -50 Descending Atlanta TRACON
Tue 03:43:46 PM 34.1833 -85.0333 76° East 290 334 7,000 -1,053 Level Atlanta TRACON
Tue 03:44:40 PM 34.2333 -84.9833 40° Northeast 261 300 5,000 -2,222 Descending Atlanta TRACON
Tue 03:52:00 PM 34.3230 -84.8220 56° Northeast  Level FlightAware Approximate
Tue 03:59:00 PM 34.1167 -84.8333 180° South  Level FlightAware Approximate
Tue 04:00:00 PM 34.1231 -84.8487 180° South  Level Estimated
Tue 04:01:00 PM 34.1231 -84.8487 180° South  Level Estimated
Tue 04:02:00 PM 34.1231 -84.8487 180° South  Level Estimated
Tue 04:03:00 PM 34.1231 -84.8487 180° South  Level Estimated
Tue 04:04:00 PM 34.1231 -84.8487 180° South  Level Estimated
Tue 04:05:00 PM 34.1231 -84.8487 180° South  Level Estimated
Tue 04:06:00 PM 34.1231 -84.8487 180° South  Level Estimated
Tue 04:07:00 PM 34.1231 -84.8487 180° South  Level Estimated

Login

Don't have an account? Register now (free) for customized features, flight alerts, and more!